createdAt,value
2023-02-19T00:01:09.366Z,101325.81
2023-02-19T00:04:15.806Z,101323.19
2023-02-19T00:07:18.757Z,101324.06
2023-02-19T00:10:21.589Z,101327.69
2023-02-19T00:13:24.474Z,101316.16
2023-02-19T00:16:29.166Z,101322.34
2023-02-19T00:19:33.531Z,101315.28
2023-02-19T00:22:36.475Z,101314.34
2023-02-19T00:25:39.495Z,101311.69
2023-02-19T00:28:42.415Z,101309.03
2023-02-19T00:31:46.481Z,101314.34
2023-02-19T00:34:50.928Z,101314.34
2023-02-19T00:37:53.886Z,101322.34
2023-02-19T00:40:56.787Z,101311.69
2023-02-19T00:44:01.806Z,101312.59
2023-02-19T00:47:04.723Z,101325.94
2023-02-19T00:50:09.463Z,101325.94
2023-02-19T00:53:12.489Z,101315.28
2023-02-19T00:56:15.902Z,101318.84
2023-02-19T00:59:18.902Z,101311.81
2023-02-19T01:02:22.199Z,101313.53
2023-02-19T01:05:27.589Z,101307.34
2023-02-19T01:08:32.114Z,101301.13
2023-02-19T01:11:37.210Z,101310.00
2023-02-19T01:14:40.289Z,101303.81
2023-02-19T01:17:43.357Z,101295.81
2023-02-19T01:20:48.137Z,101303.72
2023-02-19T01:23:51.727Z,101301.13
2023-02-19T01:26:54.561Z,101294.94
2023-02-19T01:29:57.720Z,101282.47
2023-02-19T01:33:00.669Z,101271.88
2023-02-19T01:36:07.265Z,101256.72
2023-02-19T01:39:12.035Z,101264.72
2023-02-19T01:42:16.834Z,101271.88
2023-02-19T01:45:26.939Z,101262.06
2023-02-19T01:48:33.947Z,101254.13
2023-02-19T01:51:42.651Z,101255.00
2023-02-19T01:54:48.115Z,101260.34
2023-02-19T01:57:55.879Z,101262.06
2023-02-19T02:00:59.376Z,101264.72
2023-02-19T02:04:02.464Z,101264.72
2023-02-19T02:07:28.218Z,101254.06
2023-02-19T02:10:30.189Z,101251.38
2023-02-19T02:13:34.830Z,101255.00
2023-02-19T02:16:49.327Z,101241.69
2023-02-19T02:20:07.950Z,101223.00
2023-02-19T02:23:21.381Z,101211.47
2023-02-19T02:26:36.759Z,101218.56
2023-02-19T02:30:07.019Z,101217.69
2023-02-19T02:33:20.656Z,101215.00
2023-02-19T02:36:28.463Z,101223.00
2023-02-19T02:39:32.740Z,101214.06
2023-02-19T02:42:40.129Z,101211.38
2023-02-19T02:45:49.112Z,101224.72
2023-02-19T02:49:01.839Z,101219.47
2023-02-19T02:52:25.207Z,101215.00
2023-02-19T02:55:31.598Z,101215.00
2023-02-19T02:58:35.703Z,101216.72
2023-02-19T03:02:03.317Z,101219.47
2023-02-19T03:05:27.137Z,101236.34
2023-02-19T03:08:32.745Z,101239.00
2023-02-19T03:11:57.202Z,101239.94
2023-02-19T03:15:23.080Z,101239.00
2023-02-19T03:18:51.924Z,101236.34
2023-02-19T03:22:00.346Z,101248.81
2023-02-19T03:25:26.024Z,101255.88
2023-02-19T03:28:47.446Z,101252.34
2023-02-19T03:31:53.416Z,101257.69
2023-02-19T03:35:03.116Z,101254.13
2023-02-19T03:38:12.401Z,101259.47
2023-02-19T03:41:24.366Z,101264.81
2023-02-19T03:44:38.854Z,101263.94
2023-02-19T03:47:49.967Z,101266.53
2023-02-19T03:51:10.515Z,101269.22
2023-02-19T03:54:22.114Z,101265.69
2023-02-19T03:57:32.741Z,101263.94
2023-02-19T04:00:40.803Z,101265.69
2023-02-19T04:03:50.026Z,101257.69
2023-02-19T04:06:57.336Z,101262.06
2023-02-19T04:10:04.834Z,101266.53
2023-02-19T04:13:12.732Z,101262.06
2023-02-19T04:16:20.406Z,101263.88
2023-02-19T04:19:27.397Z,101262.06
2023-02-19T04:22:32.382Z,101260.34
2023-02-19T04:25:37.429Z,101262.06
2023-02-19T04:28:40.720Z,101281.69
2023-02-19T04:31:43.585Z,101281.69
2023-02-19T04:34:46.619Z,101279.94
2023-02-19T04:37:50.795Z,101277.22
2023-02-19T04:40:53.751Z,101279.88
2023-02-19T04:43:56.592Z,101277.22
2023-02-19T04:46:59.447Z,101267.38
2023-02-19T04:50:02.393Z,101265.69
2023-02-19T04:53:06.730Z,101273.69
2023-02-19T04:56:10.839Z,101269.25
2023-02-19T04:59:13.920Z,101274.59
2023-02-19T05:02:16.857Z,101269.25
2023-02-19T05:05:19.692Z,101270.22
2023-02-19T05:08:23.922Z,101270.22
2023-02-19T05:11:26.988Z,101266.66
2023-02-19T05:14:29.842Z,101268.47
2023-02-19T05:17:34.186Z,101269.41
2023-02-19T05:20:37.748Z,101260.47
2023-02-19T05:23:42.453Z,101258.69
2023-02-19T05:26:45.619Z,101249.78
2023-02-19T05:29:48.599Z,101250.66
2023-02-19T05:32:51.427Z,101244.47
2023-02-19T05:35:56.626Z,101241.81
2023-02-19T05:39:00.877Z,101249.78
2023-02-19T05:42:03.779Z,101244.47
2023-02-19T05:45:07.550Z,101237.41
2023-02-19T05:48:12.878Z,101239.13
2023-02-19T05:51:18.206Z,101248.09
2023-02-19T05:54:22.461Z,101245.41
2023-02-19T05:57:25.394Z,101256.16
2023-02-19T06:00:28.468Z,101257.88
2023-02-19T06:03:31.295Z,101262.34
2023-02-19T06:06:34.168Z,101269.41
2023-02-19T06:09:38.457Z,101271.22
2023-02-19T06:12:41.235Z,101278.28
2023-02-19T06:15:44.075Z,101280.09
2023-02-19T06:18:47.285Z,101280.09
2023-02-19T06:21:51.364Z,101286.28
2023-02-19T06:24:55.834Z,101291.63
2023-02-19T06:27:58.731Z,101294.34
2023-02-19T06:31:01.631Z,101305.00
2023-02-19T06:34:05.833Z,101316.53
2023-02-19T06:37:08.770Z,101313.06
2023-02-19T06:40:13.236Z,101314.88
2023-02-19T06:43:16.110Z,101320.19
2023-02-19T06:46:19.184Z,101322.06
2023-02-19T06:49:22.733Z,101330.94
2023-02-19T06:52:25.815Z,101334.47
2023-02-19T06:55:30.052Z,101343.41
2023-02-19T06:58:33.946Z,101348.81
2023-02-19T07:01:38.334Z,101351.56
2023-02-19T07:04:41.655Z,101364.09
2023-02-19T07:07:46.632Z,101362.31
2023-02-19T07:10:56.964Z,101371.28
2023-02-19T07:14:01.503Z,101376.69
2023-02-19T07:17:04.467Z,101378.56
2023-02-19T07:20:07.795Z,101386.56
2023-02-19T07:23:10.705Z,101389.31
2023-02-19T07:26:16.933Z,101396.41
2023-02-19T07:29:20.011Z,101400.00
2023-02-19T07:32:22.846Z,101403.47
2023-02-19T07:35:25.784Z,101400.81
2023-02-19T07:38:29.212Z,101407.97
2023-02-19T07:41:33.980Z,101413.22
2023-02-19T07:44:36.902Z,101408.81
2023-02-19T07:47:40.311Z,101415.00
2023-02-19T07:50:43.320Z,101416.78
2023-02-19T07:53:46.637Z,101422.13
2023-02-19T07:56:50.952Z,101438.13
2023-02-19T07:59:53.824Z,101439.88
2023-02-19T08:03:03.134Z,101446.13
2023-02-19T08:06:07.148Z,101458.53
2023-02-19T08:09:10.654Z,101463.81
2023-02-19T08:12:32.556Z,101466.47
2023-02-19T08:15:35.444Z,101478.81
2023-02-19T08:18:38.420Z,101493.94
2023-02-19T08:21:41.252Z,101501.06
2023-02-19T08:24:45.062Z,101511.69
2023-02-19T08:27:49.254Z,101513.47
2023-02-19T08:30:52.377Z,101526.78
2023-02-19T08:33:55.878Z,101526.78
2023-02-19T08:36:58.741Z,101545.47
2023-02-19T08:40:01.681Z,101542.81
2023-02-19T08:43:08.100Z,101546.38
2023-02-19T08:46:12.229Z,101557.03
2023-02-19T08:49:16.419Z,101549.03
2023-02-19T08:52:19.447Z,101557.03
2023-02-19T08:55:22.536Z,101564.19
2023-02-19T08:58:27.253Z,101568.66
2023-02-19T09:01:30.235Z,101568.66
2023-02-19T09:04:33.264Z,101561.56
2023-02-19T09:07:36.213Z,101566.91
2023-02-19T09:10:39.097Z,101574.91
2023-02-19T09:13:44.209Z,101579.38
2023-02-19T09:16:46.990Z,101582.06
2023-02-19T09:19:50.902Z,101583.84
2023-02-19T09:22:58.201Z,101590.09
2023-02-19T09:26:03.279Z,101591.03
2023-02-19T09:29:07.539Z,101597.28
2023-02-19T09:32:10.828Z,101592.88
2023-02-19T09:35:13.736Z,101603.56
2023-02-19T09:38:16.690Z,101600.88
2023-02-19T09:41:25.975Z,101606.22
2023-02-19T09:44:32.200Z,101607.94
2023-02-19T09:47:36.026Z,101618.75
2023-02-19T09:50:45.879Z,101624.00
2023-02-19T09:53:51.890Z,101627.41
2023-02-19T09:56:57.694Z,101635.63
2023-02-19T10:00:08.577Z,101630.91
2023-02-19T10:03:23.368Z,101631.94
2023-02-19T10:06:29.941Z,101633.19
2023-02-19T10:09:32.904Z,101637.94
2023-02-19T10:12:35.776Z,101640.03
2023-02-19T10:15:45.941Z,101653.59
2023-02-19T10:18:49.583Z,101665.47
2023-02-19T10:21:52.543Z,101664.06
2023-02-19T10:24:57.321Z,101665.31
2023-02-19T10:28:00.624Z,101677.25
2023-02-19T10:31:12.693Z,101675.13
2023-02-19T10:34:20.632Z,101691.63
2023-02-19T10:37:23.654Z,101690.53
2023-02-19T10:40:29.350Z,101700.16
2023-02-19T10:43:36.545Z,101700.06
2023-02-19T10:46:45.182Z,101702.72
2023-02-19T10:49:49.796Z,101709.75
2023-02-19T10:52:54.630Z,101718.56
2023-02-19T10:56:08.797Z,101724.72
2023-02-19T10:59:25.758Z,101723.81
2023-02-19T11:02:31.523Z,101723.81
2023-02-19T11:05:35.012Z,101743.41
2023-02-19T11:08:48.506Z,101730.19
2023-02-19T11:11:53.316Z,101742.72
2023-02-19T11:14:56.694Z,101743.69
2023-02-19T11:18:23.474Z,101739.34
2023-02-19T11:21:32.851Z,101748.31
2023-02-19T11:24:38.179Z,101767.94
2023-02-19T11:27:55.355Z,101764.47
2023-02-19T11:31:15.441Z,101763.56
2023-02-19T11:37:34.115Z,101776.16
2023-02-19T11:40:41.977Z,101774.47
2023-02-19T11:44:01.323Z,101778.00
2023-02-19T11:47:33.005Z,101775.38
2023-02-19T11:50:49.601Z,101785.19
2023-02-19T11:54:04.413Z,101784.34
2023-02-19T11:57:16.334Z,101795.03
2023-02-19T12:00:25.997Z,101783.53
2023-02-19T12:03:49.968Z,101790.69
2023-02-19T12:07:05.349Z,101797.78
2023-02-19T12:10:18.797Z,101787.16
2023-02-19T12:13:34.160Z,101785.38
2023-02-19T12:16:43.793Z,101782.75
2023-02-19T12:20:04.169Z,101781.81
2023-02-19T12:23:32.072Z,101808.47
2023-02-19T12:26:42.580Z,101797.81
2023-02-19T12:30:00.459Z,101788.91
2023-02-19T12:33:18.567Z,101799.56
2023-02-19T12:36:28.907Z,101802.25
2023-02-19T12:39:43.088Z,101804.03
2023-02-19T12:42:58.561Z,101809.38
2023-02-19T12:46:05.393Z,101813.81
2023-02-19T12:49:13.490Z,101815.56
2023-02-19T12:52:21.103Z,101808.47
2023-02-19T12:55:29.157Z,101814.69
2023-02-19T12:58:38.919Z,101817.38
2023-02-19T13:01:49.616Z,101818.31
2023-02-19T13:05:01.220Z,101825.38
2023-02-19T13:08:09.039Z,101837.78
2023-02-19T13:11:19.190Z,101847.53
2023-02-19T13:14:28.397Z,101851.97
2023-02-19T13:17:39.602Z,101846.63
2023-02-19T13:20:44.528Z,101837.75
2023-02-19T13:23:58.610Z,101846.69
2023-02-19T13:27:13.328Z,101859.09
2023-02-19T13:30:34.989Z,101863.50
2023-02-19T13:33:48.386Z,101857.38
2023-02-19T13:36:51.364Z,101857.38
2023-02-19T13:39:55.891Z,101873.38
2023-02-19T13:43:02.386Z,101868.03
2023-02-19T13:46:08.821Z,101871.53
2023-02-19T13:49:42.267Z,101865.38
2023-02-19T13:52:45.195Z,101871.53
2023-02-19T13:55:53.143Z,101870.69
2023-02-19T13:59:01.464Z,101883.97
2023-02-19T14:02:29.108Z,101876.03
2023-02-19T14:06:01.861Z,101886.69
2023-02-19T14:09:04.788Z,101902.69
2023-02-19T14:12:20.636Z,101903.53
2023-02-19T14:15:44.890Z,101897.38
2023-02-19T14:18:47.942Z,101897.34
2023-02-19T14:21:50.851Z,101912.47
2023-02-19T14:24:55.148Z,101907.16
2023-02-19T14:28:03.227Z,101914.31
2023-02-19T14:31:18.572Z,101903.66
2023-02-19T14:34:26.298Z,101901.00
2023-02-19T14:37:29.187Z,101899.22
2023-02-19T14:40:37.014Z,101897.41
2023-02-19T14:43:40.760Z,101901.00
2023-02-19T14:46:50.971Z,101912.53
2023-02-19T14:49:59.096Z,101914.38
2023-02-19T14:53:05.514Z,101920.59
2023-02-19T14:56:20.624Z,101915.25
2023-02-19T14:59:26.641Z,101915.25
2023-02-19T15:02:33.094Z,101911.72
2023-02-19T15:05:37.706Z,101908.16
2023-02-19T15:08:45.548Z,101918.75
2023-02-19T15:11:49.402Z,101924.09
2023-02-19T15:14:56.360Z,101928.53
2023-02-19T15:18:02.557Z,101931.16
2023-02-19T15:21:23.667Z,101931.16
2023-02-19T15:24:28.221Z,101930.31
2023-02-19T15:27:31.270Z,101939.16
2023-02-19T15:30:34.323Z,101945.41
2023-02-19T15:33:38.527Z,101955.16
2023-02-19T15:36:42.001Z,101952.47
2023-02-19T15:39:48.229Z,101957.81
2023-02-19T15:42:51.195Z,101948.09
2023-02-19T15:45:57.599Z,101970.31
2023-02-19T15:49:06.227Z,101956.97
2023-02-19T15:52:13.314Z,101966.75
2023-02-19T15:55:28.154Z,101963.19
2023-02-19T15:58:36.265Z,101973.81
2023-02-19T16:01:40.857Z,101976.44
2023-02-19T16:04:46.499Z,101980.03
2023-02-19T16:08:07.444Z,101980.03
2023-02-19T16:11:29.778Z,101989.75
2023-02-19T16:14:34.343Z,101977.38
2023-02-19T16:17:37.350Z,101986.22
2023-02-19T16:20:41.644Z,101996.91
2023-02-19T16:23:46.474Z,102003.13
2023-02-19T16:26:49.419Z,102008.47
2023-02-19T16:29:53.028Z,102010.28
2023-02-19T16:33:36.191Z,102016.47
2023-02-19T16:36:42.486Z,102022.75
2023-02-19T16:39:45.353Z,102029.88
2023-02-19T16:43:24.995Z,102035.19
2023-02-19T16:46:28.040Z,102042.31
2023-02-19T16:49:30.873Z,102049.41
2023-02-19T16:52:38.967Z,102049.41
2023-02-19T16:55:41.849Z,102044.13
2023-02-19T16:58:44.718Z,102051.19
2023-02-19T17:01:47.711Z,102059.25
2023-02-19T17:04:51.897Z,102066.31
2023-02-19T17:07:56.123Z,102053.00
2023-02-19T17:10:59.370Z,102052.09
2023-02-19T17:14:02.229Z,102055.66
2023-02-19T17:17:06.256Z,102065.47
2023-02-19T17:20:21.438Z,102066.31
2023-02-19T17:23:25.656Z,102065.47
2023-02-19T17:26:30.964Z,102073.41
2023-02-19T17:29:34.080Z,102072.47
2023-02-19T17:32:37.028Z,102068.91
2023-02-19T17:35:40.125Z,102058.22
2023-02-19T17:38:44.340Z,102061.75
2023-02-19T17:41:47.459Z,102069.69
2023-02-19T17:44:51.893Z,102073.25
2023-02-19T17:47:54.712Z,102073.25
2023-02-19T17:50:57.850Z,102078.59
2023-02-19T17:54:02.531Z,102083.00
2023-02-19T17:57:05.838Z,102074.91
2023-02-19T18:00:09.851Z,102073.06
2023-02-19T18:03:15.827Z,102088.22
2023-02-19T18:06:18.889Z,102082.00
2023-02-19T18:09:23.117Z,102087.34
2023-02-19T18:12:26.295Z,102091.84
2023-02-19T18:15:29.613Z,102097.19
2023-02-19T18:18:32.440Z,102104.38
2023-02-19T18:21:35.283Z,102109.75
2023-02-19T18:24:40.078Z,102105.38
2023-02-19T18:27:42.926Z,102115.13
2023-02-19T18:30:45.963Z,102116.03
2023-02-19T18:33:48.929Z,102116.91
2023-02-19T18:36:51.848Z,102111.56
2023-02-19T18:39:56.064Z,102112.47
2023-02-19T18:42:58.946Z,102109.81
2023-02-19T18:46:02.066Z,102117.81
2023-02-19T18:49:05.068Z,102114.25
2023-02-19T18:52:08.378Z,102108.91
2023-02-19T18:55:13.060Z,102109.78
2023-02-19T18:58:15.941Z,102114.25
2023-02-19T19:01:18.838Z,102114.22
2023-02-19T19:04:21.829Z,102099.09
2023-02-19T19:07:24.706Z,102106.22
2023-02-19T19:10:29.841Z,102112.38
2023-02-19T19:13:32.722Z,102108.84
2023-02-19T19:16:35.887Z,102125.72
2023-02-19T19:19:38.830Z,102123.91
2023-02-19T19:22:41.655Z,102127.47
2023-02-19T19:25:45.890Z,102123.00
2023-02-19T19:28:48.724Z,102125.69
2023-02-19T19:31:51.685Z,102130.97
2023-02-19T19:34:55.131Z,102123.84
2023-02-19T19:37:58.014Z,102130.91
2023-02-19T19:41:02.263Z,102122.91
2023-02-19T19:44:05.845Z,102111.34
2023-02-19T19:47:08.652Z,102110.50
2023-02-19T19:50:13.171Z,102113.16
2023-02-19T19:53:16.239Z,102115.84
2023-02-19T19:56:20.468Z,102115.84
2023-02-19T19:59:24.149Z,102109.63
2023-02-19T20:02:27.141Z,102109.63
2023-02-19T20:05:30.062Z,102108.75
2023-02-19T20:08:33.000Z,102108.75
2023-02-19T20:11:43.794Z,102114.06
2023-02-19T20:14:47.695Z,102109.63
2023-02-19T20:17:51.291Z,102114.06
2023-02-19T20:20:54.187Z,102111.41
2023-02-19T20:23:57.058Z,102114.97
2023-02-19T20:27:02.685Z,102118.50
2023-02-19T20:30:08.756Z,102125.63
2023-02-19T20:33:12.859Z,102123.88
2023-02-19T20:36:15.963Z,102118.53
2023-02-19T20:39:20.204Z,102126.53
2023-02-19T20:42:24.532Z,102136.34
2023-02-19T20:45:27.985Z,102136.38
2023-02-19T20:48:30.964Z,102138.19
2023-02-19T20:51:33.948Z,102138.22
2023-02-19T20:54:38.326Z,102132.84
2023-02-19T20:57:43.572Z,102135.53
2023-02-19T21:00:46.738Z,102128.34
2023-02-19T21:03:49.557Z,102127.41
2023-02-19T21:06:52.644Z,102123.78
2023-02-19T21:09:55.757Z,102134.38
2023-02-19T21:13:00.147Z,102136.09
2023-02-19T21:16:03.288Z,102129.81
2023-02-19T21:19:06.252Z,102131.53
2023-02-19T21:22:09.213Z,102127.97
2023-02-19T21:25:12.679Z,102118.19
2023-02-19T21:28:17.019Z,102109.28
2023-02-19T21:31:24.462Z,102101.28
2023-02-19T21:34:30.078Z,102094.19
2023-02-19T21:37:33.070Z,102075.50
2023-02-19T21:40:37.520Z,102077.28
2023-02-19T21:43:41.764Z,102073.72
2023-02-19T21:46:44.657Z,102071.06
2023-02-19T21:49:47.510Z,102065.78
2023-02-19T21:52:50.481Z,102069.34
2023-02-19T21:56:10.403Z,102056.91
2023-02-19T21:59:15.688Z,102056.09
2023-02-19T22:02:19.919Z,102055.19
2023-02-19T22:05:22.815Z,102055.19
2023-02-19T22:08:25.726Z,102044.53
2023-02-19T22:11:28.633Z,102041.94
2023-02-19T22:14:32.866Z,102047.25
2023-02-19T22:17:35.681Z,102034.88
2023-02-19T22:20:39.516Z,102026.88
2023-02-19T22:23:45.406Z,102021.56
2023-02-19T22:26:50.600Z,102016.22
2023-02-19T22:29:54.976Z,102017.09
2023-02-19T22:32:57.879Z,102026.88
2023-02-19T22:36:00.784Z,102036.69
2023-02-19T22:39:04.795Z,102031.34
2023-02-19T22:42:07.746Z,102031.41
2023-02-19T22:45:13.134Z,102028.72
2023-02-19T22:48:25.177Z,102037.69
2023-02-19T22:51:35.547Z,102045.69
2023-02-19T22:54:39.280Z,102043.91
2023-02-19T22:57:42.162Z,102057.25
2023-02-19T23:00:46.634Z,102060.78
2023-02-19T23:03:51.485Z,102064.34
2023-02-19T23:06:54.397Z,102059.00
2023-02-19T23:09:57.248Z,102050.06
2023-02-19T23:13:00.437Z,102053.69
2023-02-19T23:16:06.008Z,102034.13
2023-02-19T23:19:11.466Z,102032.34
2023-02-19T23:22:14.343Z,102023.47
2023-02-19T23:25:17.501Z,102023.47
2023-02-19T23:28:20.440Z,102017.25
2023-02-19T23:31:26.068Z,102014.59
2023-02-19T23:34:29.076Z,102008.38
2023-02-19T23:37:32.124Z,102010.19
2023-02-19T23:40:35.114Z,102012.84
2023-02-19T23:43:38.019Z,102005.69
2023-02-19T23:46:43.179Z,102003.91
2023-02-19T23:49:46.247Z,101999.53
2023-02-19T23:52:49.079Z,102003.09
2023-02-19T23:55:52.576Z,102006.84
2023-02-19T23:58:55.734Z,102000.88
